createdAt,value
2018-12-21T00:00:26.499Z,47.13
2018-12-21T00:02:54.695Z,50.00
2018-12-21T00:05:22.871Z,47.70
2018-12-21T00:07:51.025Z,48.57
2018-12-21T00:10:19.212Z,48.07
2018-12-21T00:12:47.391Z,48.33
2018-12-21T00:15:16.483Z,49.93
2018-12-21T00:17:44.674Z,46.63
2018-12-21T00:20:12.866Z,50.07
2018-12-21T00:22:41.245Z,50.07
2018-12-21T00:25:09.965Z,48.33
2018-12-21T00:27:38.899Z,47.57
2018-12-21T00:30:10.996Z,51.77
2018-12-21T00:32:44.684Z,47.67
2018-12-21T00:35:18.365Z,49.50
2018-12-21T00:37:52.045Z,52.87
2018-12-21T00:40:26.008Z,48.97
2018-12-21T00:43:07.211Z,48.07
2018-12-21T00:45:37.060Z,50.60
2018-12-21T00:48:05.825Z,48.63
2018-12-21T00:50:34.008Z,51.43
2018-12-21T00:53:02.158Z,49.80
2018-12-21T00:55:31.041Z,48.73
2018-12-21T00:57:59.233Z,48.97
2018-12-21T01:00:27.404Z,51.47
2018-12-21T01:02:55.558Z,50.23
2018-12-21T01:05:23.733Z,50.63
2018-12-21T01:07:51.908Z,55.07
2018-12-21T01:10:20.087Z,49.93
2018-12-21T01:12:48.272Z,48.27
2018-12-21T01:15:16.449Z,50.70
2018-12-21T01:17:44.734Z,51.40
2018-12-21T01:20:12.897Z,46.70
2018-12-21T01:22:41.121Z,51.77
2018-12-21T01:25:10.185Z,48.30
2018-12-21T01:27:38.375Z,48.10
2018-12-21T01:30:07.231Z,50.73
2018-12-21T01:32:35.397Z,51.57
2018-12-21T01:35:04.094Z,49.83
2018-12-21T01:37:33.913Z,48.77
2018-12-21T01:40:02.684Z,50.20
2018-12-21T01:42:30.871Z,50.93
2018-12-21T01:44:59.045Z,50.23
2018-12-21T01:47:27.214Z,48.37
2018-12-21T01:49:55.401Z,49.67
2018-12-21T01:52:23.574Z,51.27
2018-12-21T01:54:51.849Z,52.33
2018-12-21T01:57:20.037Z,52.03
2018-12-21T01:59:48.209Z,49.17
2018-12-21T02:02:16.369Z,48.73
2018-12-21T02:04:44.589Z,49.70
2018-12-21T02:07:12.804Z,50.63
2018-12-21T02:09:40.971Z,51.40
2018-12-21T02:12:09.162Z,49.57
2018-12-21T02:14:37.316Z,51.13
2018-12-21T02:17:05.459Z,49.67
2018-12-21T02:19:33.652Z,50.37
2018-12-21T02:22:01.822Z,49.67
2018-12-21T02:24:29.987Z,49.53
2018-12-21T02:26:58.156Z,50.60
2018-12-21T02:29:26.525Z,50.53
2018-12-21T02:31:55.666Z,49.60
2018-12-21T02:34:23.837Z,52.03
2018-12-21T02:36:51.999Z,47.20
2018-12-21T02:39:20.160Z,49.37
2018-12-21T02:41:49.149Z,48.47
2018-12-21T02:44:17.322Z,52.43
2018-12-21T02:46:45.465Z,47.03
2018-12-21T02:49:13.756Z,48.67
2018-12-21T02:51:41.923Z,47.03
2018-12-21T02:54:10.069Z,47.70
2018-12-21T02:56:38.251Z,45.20
2018-12-21T02:59:06.432Z,47.57
2018-12-21T03:01:34.604Z,46.13
2018-12-21T03:04:02.789Z,49.20
2018-12-21T03:06:30.958Z,47.53
2018-12-21T03:08:59.111Z,45.27
2018-12-21T03:11:27.288Z,46.13
2018-12-21T03:13:55.469Z,46.47
2018-12-21T03:16:23.673Z,48.20
2018-12-21T03:18:51.858Z,47.50
2018-12-21T03:21:20.002Z,47.10
2018-12-21T03:23:48.178Z,46.50
2018-12-21T03:26:16.349Z,46.53
2018-12-21T03:28:44.493Z,46.30
2018-12-21T03:31:12.644Z,45.43
2018-12-21T03:33:40.829Z,46.10
2018-12-21T03:36:08.994Z,47.00
2018-12-21T03:38:37.159Z,47.90
2018-12-21T03:41:05.946Z,46.53
2018-12-21T03:43:34.102Z,46.43
2018-12-21T03:46:02.254Z,46.90
2018-12-21T03:48:30.436Z,46.37
2018-12-21T03:50:58.590Z,47.13
2018-12-21T03:53:26.760Z,48.90
2018-12-21T03:55:54.948Z,48.50
2018-12-21T03:58:23.112Z,47.17
2018-12-21T04:00:51.265Z,47.10
2018-12-21T04:03:19.446Z,47.70
2018-12-21T04:05:47.593Z,46.70
2018-12-21T04:08:16.683Z,47.57
2018-12-21T04:10:44.858Z,47.40
2018-12-21T04:13:13.014Z,48.50
2018-12-21T04:15:41.478Z,46.33
2018-12-21T04:18:09.692Z,47.77
2018-12-21T04:20:37.850Z,47.67
2018-12-21T04:23:06.123Z,47.07
2018-12-21T04:25:34.332Z,47.53
2018-12-21T04:28:02.488Z,47.83
2018-12-21T04:30:30.655Z,47.97
2018-12-21T04:32:58.835Z,48.03
2018-12-21T04:35:26.992Z,47.23
2018-12-21T04:37:55.152Z,47.07
2018-12-21T04:40:23.344Z,48.63
2018-12-21T04:42:51.497Z,48.53
2018-12-21T04:45:19.661Z,48.53
2018-12-21T04:47:47.865Z,48.00
2018-12-21T04:50:16.043Z,47.23
2018-12-21T04:52:44.212Z,47.10
2018-12-21T04:55:12.413Z,47.57
2018-12-21T04:57:40.562Z,47.90
2018-12-21T05:00:08.949Z,47.63
2018-12-21T05:02:37.163Z,49.00
2018-12-21T05:05:05.481Z,47.10
2018-12-21T05:07:33.640Z,48.57
2018-12-21T05:10:01.821Z,48.60
2018-12-21T05:12:29.991Z,48.00
2018-12-21T05:14:58.143Z,47.50
2018-12-21T05:17:26.347Z,49.03
2018-12-21T05:19:54.494Z,48.00
2018-12-21T05:22:22.677Z,47.70
2018-12-21T05:24:50.874Z,48.47
2018-12-21T05:27:19.036Z,48.33
2018-12-21T05:29:47.197Z,48.13
2018-12-21T05:32:15.379Z,48.10
2018-12-21T05:34:43.532Z,48.87
2018-12-21T05:37:11.701Z,48.07
2018-12-21T05:39:39.883Z,48.60
2018-12-21T05:42:08.028Z,47.83
2018-12-21T05:44:36.185Z,48.27
2018-12-21T05:47:04.376Z,48.70
2018-12-21T05:49:32.565Z,50.83
2018-12-21T05:52:01.383Z,51.03
2018-12-21T05:54:29.588Z,51.00
2018-12-21T05:56:57.741Z,49.90
2018-12-21T05:59:25.931Z,50.10
2018-12-21T06:01:54.242Z,49.10
2018-12-21T06:04:22.419Z,50.63
2018-12-21T06:06:50.723Z,50.43
2018-12-21T06:09:18.899Z,51.30
2018-12-21T06:11:48.032Z,49.63
2018-12-21T06:14:16.200Z,51.20
2018-12-21T06:16:45.211Z,49.27
2018-12-21T06:19:13.390Z,49.13
2018-12-21T06:21:41.546Z,48.33
2018-12-21T06:24:09.711Z,50.17
2018-12-21T06:26:37.854Z,49.50
2018-12-21T06:29:06.021Z,48.00
2018-12-21T06:31:34.199Z,47.93
2018-12-21T06:34:02.377Z,49.23
2018-12-21T06:36:30.547Z,50.37
2018-12-21T06:38:58.740Z,49.87
2018-12-21T06:41:26.904Z,50.80
2018-12-21T06:43:55.052Z,49.00
2018-12-21T06:46:23.217Z,50.47
2018-12-21T06:48:51.961Z,49.30
2018-12-21T06:51:20.128Z,49.73
2018-12-21T06:53:48.298Z,48.73
2018-12-21T06:56:16.460Z,48.73
2018-12-21T06:58:44.735Z,49.53
2018-12-21T07:01:12.911Z,49.03
2018-12-21T07:03:41.092Z,49.40
2018-12-21T07:06:09.310Z,49.23
2018-12-21T07:08:37.605Z,49.73
2018-12-21T07:11:06.221Z,49.07
2018-12-21T07:13:34.396Z,50.37
2018-12-21T07:16:02.659Z,49.33
2018-12-21T07:18:31.163Z,49.03
2018-12-21T07:20:59.982Z,50.90
2018-12-21T07:23:28.164Z,49.07
2018-12-21T07:25:56.347Z,48.10
2018-12-21T07:28:24.501Z,49.00
2018-12-21T07:30:52.776Z,49.53
2018-12-21T07:33:20.977Z,50.20
2018-12-21T07:35:50.050Z,49.00
2018-12-21T07:38:18.322Z,48.37
2018-12-21T07:40:46.609Z,48.83
2018-12-21T07:43:14.988Z,49.50
2018-12-21T07:45:43.174Z,49.53
2018-12-21T07:48:11.342Z,48.47
2018-12-21T07:50:39.494Z,48.87
2018-12-21T07:53:09.038Z,50.00
2018-12-21T07:55:37.256Z,48.63
2018-12-21T07:58:05.534Z,49.30
2018-12-21T08:00:33.716Z,49.03
2018-12-21T08:03:02.413Z,49.10
2018-12-21T08:05:30.573Z,49.73
2018-12-21T08:07:58.796Z,48.70
2018-12-21T08:10:27.026Z,50.03
2018-12-21T08:12:55.202Z,49.30
2018-12-21T08:15:23.383Z,50.53
2018-12-21T08:17:51.547Z,48.20
2018-12-21T08:20:19.824Z,48.50
2018-12-21T08:22:48.124Z,48.10
2018-12-21T08:25:16.293Z,48.17
2018-12-21T08:27:44.478Z,49.93
2018-12-21T08:30:12.669Z,49.93
2018-12-21T08:32:40.832Z,48.67
2018-12-21T08:35:08.996Z,48.47
2018-12-21T08:37:37.186Z,50.03
2018-12-21T08:40:07.980Z,49.27
2018-12-21T08:42:36.179Z,50.53
2018-12-21T08:45:06.701Z,49.07
2018-12-21T08:47:34.860Z,48.77
2018-12-21T08:50:03.633Z,48.00
2018-12-21T08:52:31.811Z,49.87
2018-12-21T08:54:59.956Z,49.27
2018-12-21T08:57:28.135Z,48.43
2018-12-21T08:59:56.336Z,49.13
2018-12-21T09:02:24.615Z,49.50
2018-12-21T09:04:52.771Z,49.17
2018-12-21T09:07:20.972Z,50.27
2018-12-21T09:09:49.146Z,49.30
2018-12-21T09:12:17.322Z,50.40
2018-12-21T09:14:45.493Z,48.40
2018-12-21T09:17:13.656Z,49.90
2018-12-21T09:19:41.945Z,50.20
2018-12-21T09:22:10.135Z,49.27
2018-12-21T09:24:38.297Z,48.60
2018-12-21T09:27:06.491Z,52.77
2018-12-21T09:29:34.750Z,48.27
2018-12-21T09:32:05.244Z,49.33
2018-12-21T09:34:33.094Z,49.43
2018-12-21T09:37:02.093Z,49.20
2018-12-21T09:39:30.252Z,48.90
2018-12-21T09:41:58.419Z,49.17
2018-12-21T09:44:26.595Z,49.47
2018-12-21T09:46:54.765Z,48.50
2018-12-21T09:49:22.941Z,51.30
2018-12-21T09:51:51.331Z,51.03
2018-12-21T09:54:19.501Z,53.03
2018-12-21T09:56:47.665Z,53.37
2018-12-21T09:59:18.798Z,53.70
2018-12-21T10:01:46.972Z,50.43
2018-12-21T10:04:15.118Z,51.03
2018-12-21T10:06:43.318Z,51.87
2018-12-21T10:09:11.728Z,52.07
2018-12-21T10:11:39.880Z,54.67
2018-12-21T10:14:08.072Z,57.23
2018-12-21T10:16:36.221Z,54.03
2018-12-21T10:19:04.524Z,51.17
2018-12-21T10:21:32.697Z,53.40
2018-12-21T10:24:00.872Z,55.70
2018-12-21T10:26:29.036Z,50.97
2018-12-21T10:28:57.229Z,51.87
2018-12-21T10:31:25.414Z,53.50
2018-12-21T10:33:53.588Z,53.40
2018-12-21T10:36:21.788Z,51.80
2018-12-21T10:38:50.074Z,51.67
2018-12-21T10:41:18.247Z,53.97
2018-12-21T10:43:46.436Z,59.67
2018-12-21T10:46:14.615Z,52.80
2018-12-21T10:48:42.779Z,56.07
2018-12-21T10:51:11.636Z,55.13
2018-12-21T10:53:39.875Z,52.97
2018-12-21T10:56:08.952Z,51.53
2018-12-21T10:58:37.139Z,51.10
2018-12-21T11:01:05.312Z,53.97
2018-12-21T11:03:33.551Z,50.47
2018-12-21T11:06:01.743Z,53.63
2018-12-21T11:08:30.400Z,50.70
2018-12-21T11:10:58.554Z,48.47
2018-12-21T11:13:26.733Z,51.07
2018-12-21T11:15:54.906Z,49.93
2018-12-21T11:18:23.045Z,52.63
2018-12-21T11:20:51.241Z,52.33
2018-12-21T11:23:19.415Z,52.93
2018-12-21T11:25:47.611Z,53.37
2018-12-21T11:28:15.792Z,47.30
2018-12-21T11:30:44.039Z,48.50
2018-12-21T11:33:12.204Z,52.20
2018-12-21T11:35:40.409Z,50.67
2018-12-21T11:38:08.573Z,49.47
2018-12-21T11:40:36.757Z,52.23
2018-12-21T11:43:04.947Z,54.67
2018-12-21T11:45:33.142Z,52.07
2018-12-21T11:48:01.298Z,49.83
2018-12-21T11:50:29.663Z,51.90
2018-12-21T11:52:57.838Z,50.90
2018-12-21T11:55:26.012Z,50.67
2018-12-21T11:57:54.182Z,52.33
2018-12-21T12:00:22.356Z,51.50
2018-12-21T12:02:50.532Z,50.33
2018-12-21T12:05:18.745Z,51.83
2018-12-21T12:07:47.042Z,50.50
2018-12-21T12:10:15.207Z,48.83
2018-12-21T12:12:43.402Z,51.23
2018-12-21T12:15:11.576Z,51.30
2018-12-21T12:17:39.742Z,50.43
2018-12-21T12:20:08.034Z,48.37
2018-12-21T12:22:36.193Z,50.77
2018-12-21T12:25:05.682Z,49.27
2018-12-21T12:27:33.880Z,51.23
2018-12-21T12:30:02.052Z,52.10
2018-12-21T12:32:30.253Z,51.50
2018-12-21T12:34:58.674Z,48.53
2018-12-21T12:37:26.846Z,49.43
2018-12-21T12:39:55.015Z,49.40
2018-12-21T12:42:23.200Z,49.13
2018-12-21T12:44:51.354Z,50.20
2018-12-21T12:47:19.505Z,49.53
2018-12-21T12:49:47.715Z,46.90
2018-12-21T12:52:15.884Z,49.63
2018-12-21T12:54:44.038Z,47.83
2018-12-21T12:57:12.204Z,49.47
2018-12-21T12:59:40.399Z,49.53
2018-12-21T13:02:08.594Z,52.07
2018-12-21T13:04:36.780Z,50.73
2018-12-21T13:07:04.954Z,49.37
2018-12-21T13:09:33.135Z,50.10
2018-12-21T13:12:01.327Z,49.53
2018-12-21T13:14:30.413Z,49.93
2018-12-21T13:16:58.788Z,50.40
2018-12-21T13:19:26.957Z,49.20
2018-12-21T13:21:55.124Z,50.00
2018-12-21T13:24:23.301Z,49.00
2018-12-21T13:26:51.490Z,49.97
2018-12-21T13:29:19.657Z,48.40
2018-12-21T13:31:47.829Z,48.63
2018-12-21T13:34:16.004Z,48.87
2018-12-21T13:36:44.165Z,50.23
2018-12-21T13:39:13.061Z,48.87
2018-12-21T13:41:41.253Z,49.67
2018-12-21T13:44:09.416Z,49.93
2018-12-21T13:46:37.584Z,49.43
2018-12-21T13:49:05.779Z,49.67
2018-12-21T13:51:33.964Z,48.50
2018-12-21T13:54:02.115Z,49.57
2018-12-21T13:56:30.313Z,49.23
2018-12-21T13:58:58.479Z,49.80
2018-12-21T14:01:26.646Z,47.90
2018-12-21T14:03:54.875Z,48.90
2018-12-21T14:06:23.042Z,48.40
2018-12-21T14:08:51.195Z,48.10
2018-12-21T14:11:19.368Z,50.00
2018-12-21T14:13:47.509Z,48.77
2018-12-21T14:16:15.698Z,49.53
2018-12-21T14:18:43.873Z,49.07
2018-12-21T14:21:12.045Z,48.93
2018-12-21T14:23:40.203Z,47.80
2018-12-21T14:26:08.620Z,51.43
2018-12-21T14:28:36.805Z,48.47
2018-12-21T14:31:04.966Z,47.57
2018-12-21T14:33:33.166Z,48.53
2018-12-21T14:36:01.335Z,48.40
2018-12-21T14:38:29.507Z,49.63
2018-12-21T14:40:57.677Z,49.07
2018-12-21T14:43:25.847Z,51.17
2018-12-21T14:45:54.026Z,49.93
2018-12-21T14:48:22.203Z,49.23
2018-12-21T14:50:50.403Z,47.60
2018-12-21T14:53:18.559Z,48.57
2018-12-21T14:55:46.705Z,48.57
2018-12-21T14:58:14.877Z,48.70
2018-12-21T15:00:43.043Z,50.97
2018-12-21T15:03:11.197Z,49.00
2018-12-21T15:05:39.365Z,49.63
2018-12-21T15:08:07.534Z,47.83
2018-12-21T15:10:35.694Z,47.80
2018-12-21T15:13:03.991Z,47.93
2018-12-21T15:15:32.184Z,49.23
2018-12-21T15:18:00.352Z,50.23
2018-12-21T15:20:28.578Z,49.37
2018-12-21T15:22:56.729Z,49.40
2018-12-21T15:25:24.879Z,48.97
2018-12-21T15:27:53.049Z,48.97
2018-12-21T15:30:21.222Z,48.07
2018-12-21T15:32:49.407Z,53.67
2018-12-21T15:35:17.644Z,52.77
2018-12-21T15:37:46.461Z,49.30
2018-12-21T15:40:14.651Z,48.90
2018-12-21T15:42:42.858Z,49.33
2018-12-21T15:45:11.049Z,49.20
2018-12-21T15:47:40.247Z,49.10
2018-12-21T15:50:11.110Z,50.17
2018-12-21T15:52:39.310Z,51.30
2018-12-21T15:55:07.849Z,51.80
2018-12-21T15:57:36.380Z,56.55
2018-12-21T16:00:09.912Z,49.70
2018-12-21T16:02:38.626Z,50.63
2018-12-21T16:05:07.733Z,50.60
2018-12-21T16:07:36.003Z,48.57
2018-12-21T16:10:08.284Z,50.60
2018-12-21T16:12:36.470Z,48.57
2018-12-21T16:15:05.469Z,52.17
2018-12-21T16:17:33.640Z,52.77
2018-12-21T16:20:01.832Z,52.53
2018-12-21T16:22:29.999Z,50.03
2018-12-21T16:24:58.167Z,52.03
2018-12-21T16:27:26.405Z,50.97
2018-12-21T16:29:54.578Z,50.47
2018-12-21T16:32:22.767Z,50.50
2018-12-21T16:34:51.476Z,50.47
2018-12-21T16:37:19.640Z,49.37
2018-12-21T16:39:47.816Z,56.57
2018-12-21T16:42:16.009Z,51.47
2018-12-21T16:44:44.203Z,56.07
2018-12-21T16:47:12.353Z,54.03
2018-12-21T16:49:40.531Z,52.20
2018-12-21T16:52:09.512Z,56.83
2018-12-21T16:54:37.705Z,57.50
2018-12-21T16:57:05.899Z,57.73
2018-12-21T16:59:34.159Z,55.77
2018-12-21T17:02:03.537Z,55.50
2018-12-21T17:04:31.701Z,57.37
2018-12-21T17:06:59.869Z,60.53
2018-12-21T17:09:28.028Z,56.23
2018-12-21T17:11:56.351Z,56.80
2018-12-21T17:14:25.427Z,60.80
2018-12-21T17:16:53.585Z,59.13
2018-12-21T17:19:21.805Z,57.17
2018-12-21T17:21:50.012Z,57.70
2018-12-21T17:24:18.407Z,56.43
2018-12-21T17:26:46.725Z,53.17
2018-12-21T17:29:14.888Z,54.00
2018-12-21T17:31:43.036Z,55.43
2018-12-21T17:34:11.971Z,63.53
2018-12-21T17:36:40.876Z,55.93
2018-12-21T17:39:09.155Z,57.33
2018-12-21T17:41:37.349Z,61.40
2018-12-21T17:44:05.502Z,64.67
2018-12-21T17:46:33.645Z,62.13
2018-12-21T17:49:01.808Z,59.40
2018-12-21T17:51:30.088Z,60.03
2018-12-21T17:53:58.260Z,58.77
2018-12-21T17:56:29.986Z,57.17
2018-12-21T17:58:56.627Z,58.70
2018-12-21T18:01:25.115Z,63.20
2018-12-21T18:03:53.702Z,57.60
2018-12-21T18:06:21.876Z,64.80
2018-12-21T18:08:50.022Z,63.37
2018-12-21T18:11:18.208Z,65.50
2018-12-21T18:13:47.274Z,62.63
2018-12-21T18:16:15.429Z,64.40
2018-12-21T18:18:43.618Z,60.70
2018-12-21T18:21:12.744Z,58.03
2018-12-21T18:23:41.737Z,62.23
2018-12-21T18:26:09.963Z,61.13
2018-12-21T18:28:38.151Z,66.47
2018-12-21T18:31:11.939Z,62.40
2018-12-21T18:33:43.159Z,56.30
2018-12-21T18:36:11.334Z,59.57
2018-12-21T18:38:39.547Z,60.17
2018-12-21T18:41:08.564Z,61.00
2018-12-21T18:43:41.104Z,58.70
2018-12-21T18:46:09.310Z,62.23
2018-12-21T18:48:37.485Z,56.73
2018-12-21T18:51:05.777Z,54.50
2018-12-21T18:53:33.954Z,59.20
2018-12-21T18:56:02.218Z,59.60
2018-12-21T18:58:30.388Z,54.90
2018-12-21T19:00:58.576Z,56.53
2018-12-21T19:03:26.759Z,56.37
2018-12-21T19:05:54.935Z,57.03
2018-12-21T19:08:23.124Z,63.33
2018-12-21T19:10:51.330Z,56.73
2018-12-21T19:13:19.504Z,55.40
2018-12-21T19:15:47.703Z,59.13
2018-12-21T19:18:15.873Z,55.47
2018-12-21T19:20:44.048Z,57.63
2018-12-21T19:23:12.215Z,57.63
2018-12-21T19:25:40.356Z,57.90
2018-12-21T19:28:08.527Z,56.90
2018-12-21T19:30:36.701Z,57.83
2018-12-21T19:33:06.129Z,61.00
2018-12-21T19:35:34.606Z,56.77
2018-12-21T19:38:02.860Z,59.90
2018-12-21T19:40:31.035Z,57.73
2018-12-21T19:42:59.208Z,54.57
2018-12-21T19:45:27.359Z,59.17
2018-12-21T19:47:55.562Z,56.93
2018-12-21T19:50:23.784Z,53.33
2018-12-21T19:52:54.003Z,61.27
2018-12-21T19:55:30.997Z,58.00
2018-12-21T19:57:59.180Z,55.67
2018-12-21T20:00:27.333Z,55.50
2018-12-21T20:02:55.536Z,55.63
2018-12-21T20:05:23.700Z,57.40
2018-12-21T20:07:51.866Z,58.50
2018-12-21T20:10:20.164Z,59.33
2018-12-21T20:12:48.879Z,62.43
2018-12-21T20:15:17.056Z,58.43
2018-12-21T20:17:45.343Z,57.40
2018-12-21T20:20:13.556Z,60.37
2018-12-21T20:22:41.747Z,59.23
2018-12-21T20:25:10.056Z,59.93
2018-12-21T20:27:38.227Z,59.80
2018-12-21T20:30:11.320Z,58.77
2018-12-21T20:32:41.148Z,57.80
2018-12-21T20:35:10.252Z,57.73
2018-12-21T20:37:39.379Z,61.53
2018-12-21T20:40:12.202Z,65.50
2018-12-21T20:42:41.268Z,59.73
2018-12-21T20:45:11.522Z,55.23
2018-12-21T20:47:41.109Z,59.20
2018-12-21T20:50:13.503Z,57.67
2018-12-21T20:52:41.884Z,59.73
2018-12-21T20:55:10.648Z,64.60
2018-12-21T20:57:42.875Z,55.80
2018-12-21T21:00:15.919Z,55.57
2018-12-21T21:02:44.362Z,54.10
2018-12-21T21:05:12.807Z,51.67
2018-12-21T21:07:41.013Z,50.73
2018-12-21T21:10:12.134Z,53.10
2018-12-21T21:12:40.868Z,49.43
2018-12-21T21:15:12.165Z,49.37
2018-12-21T21:17:40.354Z,48.70
2018-12-21T21:20:14.220Z,50.60
2018-12-21T21:22:42.702Z,48.47
2018-12-21T21:25:11.667Z,48.20
2018-12-21T21:27:39.909Z,49.80
2018-12-21T21:30:14.212Z,50.30
2018-12-21T21:32:42.406Z,47.57
2018-12-21T21:35:10.565Z,49.80
2018-12-21T21:37:38.746Z,49.33
2018-12-21T21:40:15.728Z,47.43
2018-12-21T21:42:45.011Z,47.10
2018-12-21T21:45:13.162Z,48.10
2018-12-21T21:47:41.345Z,49.60
2018-12-21T21:50:10.503Z,50.50
2018-12-21T21:52:38.674Z,48.77
2018-12-21T21:55:07.482Z,49.03
2018-12-21T21:57:39.577Z,52.23
2018-12-21T22:00:11.177Z,50.40
2018-12-21T22:02:39.361Z,50.67
2018-12-21T22:05:07.527Z,49.33
2018-12-21T22:07:35.932Z,46.93
2018-12-21T22:10:07.918Z,46.97
2018-12-21T22:12:36.105Z,48.93
2018-12-21T22:15:05.706Z,47.90
2018-12-21T22:17:33.882Z,48.03
2018-12-21T22:20:02.203Z,48.10
2018-12-21T22:22:30.352Z,48.90
2018-12-21T22:24:58.515Z,46.73
2018-12-21T22:27:27.792Z,49.70
2018-12-21T22:29:56.065Z,48.97
2018-12-21T22:32:24.454Z,48.87
2018-12-21T22:34:52.639Z,46.87
2018-12-21T22:37:20.801Z,47.33
2018-12-21T22:39:48.959Z,49.53
2018-12-21T22:42:17.128Z,49.97
2018-12-21T22:44:45.318Z,47.27
2018-12-21T22:49:48.227Z,47.63
2018-12-21T22:52:16.489Z,47.53
2018-12-21T22:54:44.793Z,48.53
2018-12-21T22:57:12.978Z,48.13
2018-12-21T22:59:41.144Z,46.47
2018-12-21T23:02:09.406Z,48.03
2018-12-21T23:04:37.675Z,47.47
2018-12-21T23:07:05.904Z,46.97
2018-12-21T23:09:35.005Z,48.07
2018-12-21T23:12:03.976Z,47.23
2018-12-21T23:14:32.248Z,48.53
2018-12-21T23:17:00.398Z,48.10
2018-12-21T23:19:29.446Z,46.77
2018-12-21T23:21:57.608Z,48.30
2018-12-21T23:24:25.781Z,49.33
2018-12-21T23:26:53.958Z,47.13
2018-12-21T23:29:22.109Z,45.67
2018-12-21T23:31:50.273Z,46.63
2018-12-21T23:34:18.440Z,45.93
2018-12-21T23:36:46.668Z,46.40
2018-12-21T23:39:14.846Z,46.33
2018-12-21T23:41:43.009Z,45.60
2018-12-21T23:44:11.517Z,46.43
2018-12-21T23:46:39.688Z,46.07
2018-12-21T23:49:08.639Z,45.67
2018-12-21T23:51:36.784Z,46.63
2018-12-21T23:54:04.957Z,46.77
2018-12-21T23:56:33.134Z,47.37
2018-12-21T23:59:01.292Z,46.43
